Jeff Kindl — WDI5759 — position and weather

sailwx.info

Track history (hours):
 
Tides and Currents Weather Stations Pressure Air Temp Water Temp Dewpoint Dewpoint Depression Visibility Wind Speed Wind Dir Waves Ship Positions

Jeff Kindl

Owner: American Commercial Lines LLC, Jeffersonville, IN. More information available from US FCC via Universal Licensing System and Coast Guard Vessel Documentation Center.

Last reported at 2017-Nov-10 02:37 UTC. Time now 2017-Nov-22 22:13 UTC.
Position N 29°33' W 090°24'.
Warning: this ship's position is 12 days out of date.

Length 27 m; draft 2.8 m.

Type: Tow > 200 m length. MMSI: 367711840.

Date/timePositionNaut miles runAvg speedWind from/ knotsBaromVisibWave heightAir tempDewpointWater temp
2017-Nov-10 02:37N 29°33' W 090°24'1 5.1
2017-Nov-10 02:30N 29°33' W 090°25'3 5.4
2017-Nov-10 02:00N 29°33' W 090°28'3 5.4
2017-Nov-10 01:30N 29°34' W 090°31'3 5.1
2017-Nov-10 01:00N 29°34' W 090°34'2 4.2
2017-Nov-10 00:30N 29°35' W 090°36'1 2.5
2017-Nov-10 00:00N 29°35' W 090°37'2 3.2
2017-Nov-09 23:30N 29°36' W 090°39'2 3.2
2017-Nov-09 23:00N 29°36' W 090°41'2 3.0
2017-Nov-09 22:30N 29°37' W 090°42'2 3.1
2017-Nov-09 22:00N 29°35' W 090°43'1 2.7
2017-Nov-09 21:30N 29°34' W 090°43'1 2.7
2017-Nov-09 21:00N 29°34' W 090°45'2 4.8
2017-Nov-09 20:30N 29°32' W 090°47'61 3.7
2017-Nov-09 03:59N 29°51' W 091°54'2 5.0
2017-Nov-09 03:30N 29°51' W 091°57'3 5.1
2017-Nov-09 03:00N 29°50' W 091°59'3 5.1
2017-Nov-09 02:30N 29°49' W 092°02'2 4.9
2017-Nov-09 02:00N 29°48' W 092°05'2 5.0
2017-Nov-09 01:30N 29°47' W 092°07'2 4.1
2017-Nov-09 01:00N 29°47' W 092°10'2 4.7
2017-Nov-09 00:30N 29°47' W 092°12'3 5.4
2017-Nov-09 00:00N 29°48' W 092°15'3 5.1
2017-Nov-08 23:30N 29°50' W 092°18'2 4.8
2017-Nov-08 23:00N 29°51' W 092°20'38 4.7
2017-Nov-08 14:56N 29°56' W 093°04'3 4.5
2017-Nov-08 14:21N 29°56' W 093°07'1 4.1
2017-Nov-08 14:00N 29°56' W 093°09'2 4.1
2017-Nov-08 13:30N 29°57' W 093°11'2 4.7
2017-Nov-08 13:00N 29°59' W 093°12'2 4.3
2017-Nov-08 12:30N 30°01' W 093°14'2 4.1
2017-Nov-08 12:00N 30°02' W 093°15'2 4.2
2017-Nov-08 11:30N 30°04' W 093°16'2 3.2
2017-Nov-08 11:00N 30°05' W 093°18'1 1.6
2017-Nov-08 10:30N 30°06' W 093°18'0 0.0
2017-Nov-08 10:00N 30°06' W 093°18'0 0.0
2017-Nov-08 09:30N 30°06' W 093°18'0 0.0
2017-Nov-08 09:00N 30°06' W 093°18'0 0.0
2017-Nov-08 08:30N 30°06' W 093°18'0 0.0
2017-Nov-08 08:00N 30°06' W 093°18'0 0.0
2017-Nov-08 07:30N 30°06' W 093°18'1 2.4
2017-Nov-08 07:00N 30°05' W 093°20'2 3.2
2017-Nov-08 06:30N 30°04' W 093°21'2 3.6
2017-Nov-08 06:00N 30°04' W 093°23'2 4.2
2017-Nov-08 05:30N 30°04' W 093°25'3 5.2
2017-Nov-08 05:00N 30°04' W 093°28'80 4.4
2017-Nov-07 10:40N 29°30' W 094°52'1 6.6
2017-Nov-07 10:30N 29°31' W 094°53'3 6.5
2017-Nov-07 10:00N 29°33' W 094°55'3 6.7
2017-Nov-07 09:30N 29°36' W 094°57'4 7.2
2017-Nov-07 09:00N 29°39' W 094°58'3 6.4
2017-Nov-07 08:30N 29°42' W 095°01'5 6.0
2017-Nov-07 07:36N 29°46' W 095°05'0 2.8
2017-Nov-07 07:28N 29°46' W 095°05'2 1.2
2017-Nov-07 06:01N 29°45' W 095°04'0 4.7
2017-Nov-07 06:00N 29°45' W 095°04'3 4.7
2017-Nov-07 05:27N 29°43' W 095°01'2 4.3
2017-Nov-07 05:00N 29°42' W 094°60'3 5.3
2017-Nov-07 04:30N 29°40' W 094°58'3 5.3
2017-Nov-07 04:00N 29°37' W 094°58'2 4.4
2017-Nov-07 03:30N 29°37' W 095°00'1 2.4
2017-Nov-07 03:00N 29°37' W 095°01'0 0.0
2017-Nov-07 02:30N 29°37' W 095°01'0 0.0
2017-Nov-07 02:00N 29°37' W 095°01'0 0.0
2017-Nov-07 01:30N 29°37' W 095°01'0 0.1
2017-Nov-07 01:00N 29°37' W 095°02'0 0.0
2017-Nov-07 00:30N 29°37' W 095°02'0 0.0
2017-Nov-07 00:00N 29°37' W 095°02'0 0.0
2017-Nov-06 23:30N 29°37' W 095°02'0 0.0
2017-Nov-06 23:00N 29°37' W 095°02'0 0.0
2017-Nov-06 22:30N 29°37' W 095°02'0 0.0
2017-Nov-06 22:00N 29°37' W 095°02'0 0.0
2017-Nov-06 21:30N 29°37' W 095°02'0 0.0
2017-Nov-06 21:00N 29°37' W 095°02'0 0.0
2017-Nov-06 20:30N 29°37' W 095°02'0 0.0
2017-Nov-06 02:30N 29°37' W 095°01'0 0.0
2017-Nov-06 02:00N 29°37' W 095°01'0 0.4
2017-Nov-06 01:30N 29°37' W 095°01'0 0.0
2017-Nov-06 01:00N 29°37' W 095°01'0 0.0
2017-Nov-06 00:30N 29°37' W 095°01'0 0.0
2017-Nov-06 00:00N 29°37' W 095°01'2 3.0
2017-Nov-05 23:30N 29°37' W 094°60'3 4.5
2017-Nov-05 22:57N 29°39' W 094°58'3 6.9
2017-Nov-05 22:30N 29°42' W 094°60'3 5.8
2017-Nov-05 22:00N 29°44' W 095°02'3 6.0
2017-Nov-05 21:29N 29°46' W 095°05'1 0.3
2017-Nov-05 18:49N 29°46' W 095°05'0 0.2
2017-Nov-05 18:30N 29°46' W 095°06'0 0.0
2017-Nov-05 18:00N 29°46' W 095°06'0 0.0
2017-Nov-05 17:30N 29°46' W 095°06'0 0.0
2017-Nov-05 17:00N 29°46' W 095°06'0 0.0
2017-Nov-05 16:30N 29°46' W 095°06'0 0.0
2017-Nov-05 16:00N 29°46' W 095°06'0 0.0
2017-Nov-05 15:30N 29°46' W 095°06'0 0.0
2017-Nov-05 15:00N 29°46' W 095°06'0 0.0
2017-Nov-05 14:30N 29°46' W 095°06'0 0.0
2017-Nov-05 13:19N 29°46' W 095°06'0 0.0
2017-Nov-05 12:59N 29°46' W 095°06'0 0.0
2017-Nov-05 12:30N 29°46' W 095°06'0 0.0
2017-Nov-05 11:57N 29°46' W 095°06'0 0.0
2017-Nov-05 11:28N 29°46' W 095°06'0 0.0
2017-Nov-05 11:00N 29°46' W 095°06'0 0.0
2017-Nov-05 10:30N 29°46' W 095°06'0 0.0
2017-Nov-05 10:00N 29°46' W 095°06'0 0.0
2017-Nov-05 09:30N 29°46' W 095°06'0 0.0
2017-Nov-05 08:55N 29°46' W 095°06'0 0.0
2017-Nov-05 08:20N 29°46' W 095°06'0 0.0
2017-Nov-05 07:59N 29°46' W 095°06'0 0.0
2017-Nov-05 07:30N 29°46' W 095°06'0 0.0
2017-Nov-05 06:58N 29°46' W 095°06'0 0.0
2017-Nov-05 06:22N 29°46' W 095°06'0 0.0
2017-Nov-05 05:59N 29°46' W 095°06'0 0.0
2017-Nov-05 05:26N 29°46' W 095°06'0 0.0
2017-Nov-05 05:00N 29°46' W 095°06'0 0.0
2017-Nov-05 04:30N 29°46' W 095°06'0 0.0
2017-Nov-05 03:59N 29°46' W 095°06'0 0.0
2017-Nov-05 03:19N 29°46' W 095°06'0 0.0
2017-Nov-05 02:59N 29°46' W 095°06'1 1.4
2017-Nov-05 02:30N 29°46' W 095°06'0 0.0
2017-Nov-04 22:10N 29°46' W 095°06'0 0.8
2017-Nov-04 21:59N 29°46' W 095°06'0 0.8
2017-Nov-04 21:25N 29°46' W 095°06'2 4.0
2017-Nov-04 20:57N 29°45' W 095°04'3 6.0
2017-Nov-04 20:29N 29°44' W 095°01'3 5.4
2017-Nov-04 20:00N 29°42' W 094°60'3 6.4
2017-Nov-04 19:30N 29°39' W 094°58'3 6.8
2017-Nov-04 19:00N 29°36' W 094°56'3 6.8
2017-Nov-04 18:30N 29°33' W 094°54'4 0.2
2017-Nov-03 23:47N 29°29' W 094°52'2 8.1
2017-Nov-03 23:30N 29°31' W 094°53'4 8.3
2017-Nov-03 23:00N 29°34' W 094°56'4 8.2
2017-Nov-03 22:30N 29°38' W 094°58'4 7.7
2017-Nov-03 22:00N 29°42' W 094°60'3 5.6
2017-Nov-03 21:30N 29°44' W 095°02'3 5.0
2017-Nov-03 20:49N 29°46' W 095°05'0 0.2
2017-Nov-03 20:29N 29°46' W 095°05'1 1.1
2017-Nov-03 19:58N 29°46' W 095°05'0 0.6
2017-Nov-03 19:30N 29°46' W 095°06'0 0.0
2017-Nov-03 18:52N 29°46' W 095°06'0 0.0
2017-Nov-03 18:28N 29°46' W 095°06'0 0.0
2017-Nov-03 16:51N 29°46' W 095°06'0 0.0
2017-Nov-03 16:27N 29°46' W 095°06'0 0.2
2017-Nov-03 16:00N 29°46' W 095°05'0 0.2
2017-Nov-03 15:26N 29°46' W 095°06'0 0.0
2017-Nov-03 14:58N 29°46' W 095°06'0 0.0
2017-Nov-03 14:17N 29°46' W 095°06'0 0.0
2017-Nov-03 13:58N 29°46' W 095°06'0 0.0
2017-Nov-03 13:30N 29°46' W 095°06'0 0.0
2017-Nov-03 13:00N 29°46' W 095°06'0 0.0
2017-Nov-03 12:29N 29°46' W 095°06'0 0.0
2017-Nov-03 11:57N 29°46' W 095°06'0 0.0
2017-Nov-03 11:20N 29°46' W 095°06'0 0.0
2017-Nov-03 10:59N 29°46' W 095°06'0 0.0
2017-Nov-03 10:16N 29°46' W 095°06'0 0.0
2017-Nov-03 09:58N 29°46' W 095°06'0 0.0
2017-Nov-03 09:30N 29°46' W 095°06'0 0.0
2017-Nov-03 08:37N 29°46' W 095°06'0 0.0
2017-Nov-03 08:28N 29°46' W 095°06'0 0.0
2017-Nov-03 07:59N 29°46' W 095°06'0 0.0
2017-Nov-03 07:29N 29°46' W 095°06'0 0.0
2017-Nov-03 07:00N 29°46' W 095°06'0 0.0
2017-Nov-03 06:29N 29°46' W 095°06'0 0.0
2017-Nov-03 05:51N 29°46' W 095°06'0 0.0
2017-Nov-03 05:30N 29°46' W 095°06'0 0.0
2017-Nov-03 04:56N 29°46' W 095°06'0 0.0
2017-Nov-03 04:29N 29°46' W 095°06'0 0.0
2017-Nov-03 03:59N 29°46' W 095°06'0 0.0
2017-Nov-03 03:30N 29°46' W 095°06'0 0.0
2017-Nov-03 03:00N 29°46' W 095°06'0 0.0
2017-Nov-03 02:29N 29°46' W 095°06'0 0.0
2017-Nov-03 01:40N 29°46' W 095°06'0 0.0
2017-Nov-03 01:22N 29°46' W 095°06'0 0.0
2017-Nov-03 00:42N 29°46' W 095°06'0 0.0
2017-Nov-03 00:29N 29°46' W 095°06'0 0.0
2017-Nov-02 23:59N 29°46' W 095°06'0 0.0
2017-Nov-02 23:26N 29°46' W 095°06'0 0.0
2017-Nov-02 22:58N 29°46' W 095°06'0 0.0
2017-Nov-02 22:27N 29°46' W 095°06'0 0.0
2017-Nov-02 22:00N 29°46' W 095°06'0 0.0
2017-Nov-02 20:52N 29°46' W 095°06'0 0.0
2017-Nov-02 20:25N 29°46' W 095°06'0 0.0
2017-Nov-02 20:00N 29°46' W 095°06'0 0.0
2017-Nov-02 19:27N 29°46' W 095°06'1 0.2
2017-Nov-02 16:51N 29°45' W 095°06'1 1.3
2017-Nov-02 16:27N 29°46' W 095°06'0 0.0
2017-Nov-02 16:00N 29°46' W 095°06'0 0.0
2017-Nov-02 15:29N 29°46' W 095°06'0 0.0
2017-Nov-02 14:59N 29°46' W 095°06'0 0.0
2017-Nov-02 14:16N 29°46' W 095°06'0 0.0
2017-Nov-02 13:50N 29°46' W 095°06'0 0.0
2017-Nov-02 11:39N 29°46' W 095°06'0 0.0
2017-Nov-02 11:28N 29°46' W 095°06'0 0.0
2017-Nov-02 11:00N 29°46' W 095°06'0 0.0
2017-Nov-02 10:26N 29°46' W 095°06'0 0.0
2017-Nov-02 09:59N 29°46' W 095°06'0 0.0
2017-Nov-02 09:22N 29°46' W 095°06'0 0.0
2017-Nov-02 08:59N 29°46' W 095°06'0 0.0
2017-Nov-02 08:26N 29°46' W 095°06'0 0.0
2017-Nov-02 07:41N 29°46' W 095°06'0 0.0
2017-Nov-02 07:16N 29°46' W 095°06'0 0.0
2017-Nov-02 06:58N 29°46' W 095°06'0 0.0
2017-Nov-02 06:28N 29°46' W 095°06'0 0.0
2017-Nov-02 06:00N 29°46' W 095°06'0 0.0
2017-Nov-02 05:27N 29°46' W 095°06'0 0.0
2017-Nov-02 04:57N 29°46' W 095°06'0 0.0
2017-Nov-02 04:29N 29°46' W 095°06'0 0.0
2017-Nov-02 04:00N 29°46' W 095°06'0 0.0
2017-Nov-02 03:30N 29°46' W 095°06'0 0.0
2017-Nov-02 02:59N 29°46' W 095°06'0 0.0
2017-Nov-02 02:24N 29°46' W 095°06'0 0.0
2017-Nov-02 01:50N 29°46' W 095°06'0 0.0
2017-Nov-02 01:28N 29°46' W 095°06'0 0.0
2017-Nov-02 01:00N 29°46' W 095°06'0 0.0
2017-Nov-02 00:29N 29°46' W 095°06'0 0.0
2017-Nov-02 00:00N 29°46' W 095°06'0 0.0
2017-Nov-01 23:29N 29°46' W 095°06'0 0.0
2017-Nov-01 22:59N 29°46' W 095°06'0 0.0
2017-Nov-01 22:29N 29°46' W 095°06'0 0.0
2017-Nov-01 22:00N 29°46' W 095°06'0 0.0
2017-Nov-01 21:30N 29°46' W 095°06'0 0.0
2017-Nov-01 21:00N 29°46' W 095°06'0 0.0
2017-Nov-01 20:30N 29°46' W 095°06'0 0.0
2017-Nov-01 19:58N 29°46' W 095°06'0 0.0
2017-Nov-01 19:27N 29°46' W 095°06'0 0.0
2017-Nov-01 19:00N 29°46' W 095°06'0 0.0
2017-Nov-01 18:29N 29°46' W 095°06'0 0.0
2017-Nov-01 01:55N 29°46' W 095°06'0 0.0
2017-Nov-01 01:16N 29°46' W 095°06'0 0.0
2017-Nov-01 01:00N 29°46' W 095°06'0 0.0
2017-Nov-01 00:29N 29°46' W 095°06'0 0.0
2017-Oct-31 23:59N 29°46' W 095°06'0 0.0
2017-Oct-31 23:30N 29°46' W 095°06'0 0.0
2017-Oct-31 23:00N 29°46' W 095°06'0 0.0
2017-Oct-31 22:30N 29°46' W 095°06'0 0.0
2017-Oct-31 22:00N 29°46' W 095°06'0 0.0
2017-Oct-31 21:30N 29°46' W 095°06'0 0.0
2017-Oct-31 20:54N 29°46' W 095°06'0 0.0
2017-Oct-31 20:28N 29°46' W 095°06'0 0.0
2017-Oct-31 19:59N 29°46' W 095°06'0 0.0
2017-Oct-31 19:29N 29°46' W 095°06'0 0.0
2017-Oct-31 18:58N 29°46' W 095°06'0 0.0
2017-Oct-31 18:29N 29°46' W 095°06'0 0.0
2017-Oct-31 18:00N 29°46' W 095°06'0 0.0
2017-Oct-31 17:29N 29°46' W 095°06'1 0.4
2017-Oct-31 15:56N 29°46' W 095°06'0 0.0
2017-Oct-31 15:29N 29°46' W 095°06'1 1.4
2017-Oct-31 15:00N 29°46' W 095°06'0 0.0
2017-Oct-31 14:27N 29°46' W 095°06'0 0.0
2017-Oct-31 13:57N 29°46' W 095°06'0 0.0
2017-Oct-31 13:29N 29°46' W 095°06'0 0.0
2017-Oct-31 12:59N 29°46' W 095°06'0 0.0
2017-Oct-31 12:30N 29°46' W 095°06'0 0.0
2017-Oct-31 12:00N 29°46' W 095°06'0 0.0
2017-Oct-31 11:27N 29°46' W 095°06'0 0.0
2017-Oct-31 11:00N 29°46' W 095°05'0 0.0
2017-Oct-31 10:26N 29°46' W 095°06'0 0.0
2017-Oct-31 10:00N 29°46' W 095°06'0 0.0
2017-Oct-31 09:24N 29°46' W 095°06'0 0.0
2017-Oct-31 08:59N 29°46' W 095°06'0 0.0
2017-Oct-31 08:30N 29°46' W 095°06'0 0.0
2017-Oct-31 08:00N 29°46' W 095°06'0 0.0
2017-Oct-31 07:30N 29°46' W 095°06'0 0.0
2017-Oct-31 07:00N 29°46' W 095°06'0 0.0
2017-Oct-31 06:28N 29°46' W 095°06'0 0.0
2017-Oct-31 06:00N 29°46' W 095°06'0 0.0
2017-Oct-31 05:30N 29°46' W 095°06'0 0.0
2017-Oct-31 04:59N 29°46' W 095°06'0 0.0
2017-Oct-31 04:30N 29°46' W 095°06'0 0.0
2017-Oct-31 03:58N 29°46' W 095°06'0 0.0
2017-Oct-31 03:24N 29°46' W 095°06'0 0.0
2017-Oct-31 03:00N 29°46' W 095°06'  
Track history (hours):
 
Tides and Currents Weather Stations Pressure Air Temp Water Temp Dewpoint Dewpoint Depression Visibility Wind Speed Wind Dir Waves Ship Positions

Jeff Kindl

Owner: American Commercial Lines LLC, Jeffersonville, IN. More information available from US FCC via Universal Licensing System and Coast Guard Vessel Documentation Center.

Last reported at 2017-Nov-10 02:37 UTC. Time now 2017-Nov-22 22:13 UTC.
Position N 29°33' W 090°24'.
Warning: this ship's position is 12 days out of date.

Length 27 m; draft 2.8 m.

Type: Tow > 200 m length. MMSI: 367711840.

Date/timePositionNaut miles runAvg speedWind from/ knotsBaromVisibWave heightAir tempDewpointWater temp
2017-Nov-10 02:37N 29°33' W 090°24'1 5.1
2017-Nov-10 02:30N 29°33' W 090°25'3 5.4
2017-Nov-10 02:00N 29°33' W 090°28'3 5.4
2017-Nov-10 01:30N 29°34' W 090°31'3 5.1
2017-Nov-10 01:00N 29°34' W 090°34'2 4.2
2017-Nov-10 00:30N 29°35' W 090°36'1 2.5
2017-Nov-10 00:00N 29°35' W 090°37'2 3.2
2017-Nov-09 23:30N 29°36' W 090°39'2 3.2
2017-Nov-09 23:00N 29°36' W 090°41'2 3.0
2017-Nov-09 22:30N 29°37' W 090°42'2 3.1
2017-Nov-09 22:00N 29°35' W 090°43'1 2.7
2017-Nov-09 21:30N 29°34' W 090°43'1 2.7
2017-Nov-09 21:00N 29°34' W 090°45'2 4.8
2017-Nov-09 20:30N 29°32' W 090°47'61 3.7
2017-Nov-09 03:59N 29°51' W 091°54'2 5.0
2017-Nov-09 03:30N 29°51' W 091°57'3 5.1
2017-Nov-09 03:00N 29°50' W 091°59'3 5.1
2017-Nov-09 02:30N 29°49' W 092°02'2 4.9
2017-Nov-09 02:00N 29°48' W 092°05'2 5.0
2017-Nov-09 01:30N 29°47' W 092°07'2 4.1
2017-Nov-09 01:00N 29°47' W 092°10'2 4.7
2017-Nov-09 00:30N 29°47' W 092°12'3 5.4
2017-Nov-09 00:00N 29°48' W 092°15'3 5.1
2017-Nov-08 23:30N 29°50' W 092°18'2 4.8
2017-Nov-08 23:00N 29°51' W 092°20'38 4.7
2017-Nov-08 14:56N 29°56' W 093°04'3 4.5
2017-Nov-08 14:21N 29°56' W 093°07'1 4.1
2017-Nov-08 14:00N 29°56' W 093°09'2 4.1
2017-Nov-08 13:30N 29°57' W 093°11'2 4.7
2017-Nov-08 13:00N 29°59' W 093°12'2 4.3
2017-Nov-08 12:30N 30°01' W 093°14'2 4.1
2017-Nov-08 12:00N 30°02' W 093°15'2 4.2
2017-Nov-08 11:30N 30°04' W 093°16'2 3.2
2017-Nov-08 11:00N 30°05' W 093°18'1 1.6
2017-Nov-08 10:30N 30°06' W 093°18'0 0.0
2017-Nov-08 10:00N 30°06' W 093°18'0 0.0
2017-Nov-08 09:30N 30°06' W 093°18'0 0.0
2017-Nov-08 09:00N 30°06' W 093°18'0 0.0
2017-Nov-08 08:30N 30°06' W 093°18'0 0.0
2017-Nov-08 08:00N 30°06' W 093°18'0 0.0
2017-Nov-08 07:30N 30°06' W 093°18'1 2.4
2017-Nov-08 07:00N 30°05' W 093°20'2 3.2
2017-Nov-08 06:30N 30°04' W 093°21'2 3.6
2017-Nov-08 06:00N 30°04' W 093°23'2 4.2
2017-Nov-08 05:30N 30°04' W 093°25'3 5.2
2017-Nov-08 05:00N 30°04' W 093°28'80 4.4
2017-Nov-07 10:40N 29°30' W 094°52'1 6.6
2017-Nov-07 10:30N 29°31' W 094°53'3 6.5
2017-Nov-07 10:00N 29°33' W 094°55'3 6.7
2017-Nov-07 09:30N 29°36' W 094°57'4 7.2
2017-Nov-07 09:00N 29°39' W 094°58'3 6.4
2017-Nov-07 08:30N 29°42' W 095°01'5 6.0
2017-Nov-07 07:36N 29°46' W 095°05'0 2.8
2017-Nov-07 07:28N 29°46' W 095°05'2 1.2
2017-Nov-07 06:01N 29°45' W 095°04'0 4.7
2017-Nov-07 06:00N 29°45' W 095°04'3 4.7
2017-Nov-07 05:27N 29°43' W 095°01'2 4.3
2017-Nov-07 05:00N 29°42' W 094°60'3 5.3
2017-Nov-07 04:30N 29°40' W 094°58'3 5.3
2017-Nov-07 04:00N 29°37' W 094°58'2 4.4
2017-Nov-07 03:30N 29°37' W 095°00'1 2.4
2017-Nov-07 03:00N 29°37' W 095°01'0 0.0
2017-Nov-07 02:30N 29°37' W 095°01'0 0.0
2017-Nov-07 02:00N 29°37' W 095°01'0 0.0
2017-Nov-07 01:30N 29°37' W 095°01'0 0.1
2017-Nov-07 01:00N 29°37' W 095°02'0 0.0
2017-Nov-07 00:30N 29°37' W 095°02'0 0.0
2017-Nov-07 00:00N 29°37' W 095°02'0 0.0
2017-Nov-06 23:30N 29°37' W 095°02'0 0.0
2017-Nov-06 23:00N 29°37' W 095°02'0 0.0
2017-Nov-06 22:30N 29°37' W 095°02'0 0.0
2017-Nov-06 22:00N 29°37' W 095°02'0 0.0
2017-Nov-06 21:30N 29°37' W 095°02'0 0.0
2017-Nov-06 21:00N 29°37' W 095°02'0 0.0
2017-Nov-06 20:30N 29°37' W 095°02'0 0.0
2017-Nov-06 02:30N 29°37' W 095°01'0 0.0
2017-Nov-06 02:00N 29°37' W 095°01'0 0.4
2017-Nov-06 01:30N 29°37' W 095°01'0 0.0
2017-Nov-06 01:00N 29°37' W 095°01'0 0.0
2017-Nov-06 00:30N 29°37' W 095°01'0 0.0
2017-Nov-06 00:00N 29°37' W 095°01'2 3.0
2017-Nov-05 23:30N 29°37' W 094°60'3 4.5
2017-Nov-05 22:57N 29°39' W 094°58'3 6.9
2017-Nov-05 22:30N 29°42' W 094°60'3 5.8
2017-Nov-05 22:00N 29°44' W 095°02'3 6.0
2017-Nov-05 21:29N 29°46' W 095°05'1 0.3
2017-Nov-05 18:49N 29°46' W 095°05'0 0.2
2017-Nov-05 18:30N 29°46' W 095°06'0 0.0
2017-Nov-05 18:00N 29°46' W 095°06'0 0.0
2017-Nov-05 17:30N 29°46' W 095°06'0 0.0
2017-Nov-05 17:00N 29°46' W 095°06'0 0.0
2017-Nov-05 16:30N 29°46' W 095°06'0 0.0
2017-Nov-05 16:00N 29°46' W 095°06'0 0.0
2017-Nov-05 15:30N 29°46' W 095°06'0 0.0
2017-Nov-05 15:00N 29°46' W 095°06'0 0.0
2017-Nov-05 14:30N 29°46' W 095°06'0 0.0
2017-Nov-05 13:19N 29°46' W 095°06'0 0.0
2017-Nov-05 12:59N 29°46' W 095°06'0 0.0
2017-Nov-05 12:30N 29°46' W 095°06'0 0.0
2017-Nov-05 11:57N 29°46' W 095°06'0 0.0
2017-Nov-05 11:28N 29°46' W 095°06'0 0.0
2017-Nov-05 11:00N 29°46' W 095°06'0 0.0
2017-Nov-05 10:30N 29°46' W 095°06'0 0.0
2017-Nov-05 10:00N 29°46' W 095°06'0 0.0
2017-Nov-05 09:30N 29°46' W 095°06'0 0.0
2017-Nov-05 08:55N 29°46' W 095°06'0 0.0
2017-Nov-05 08:20N 29°46' W 095°06'0 0.0
2017-Nov-05 07:59N 29°46' W 095°06'0 0.0
2017-Nov-05 07:30N 29°46' W 095°06'0 0.0
2017-Nov-05 06:58N 29°46' W 095°06'0 0.0
2017-Nov-05 06:22N 29°46' W 095°06'0 0.0
2017-Nov-05 05:59N 29°46' W 095°06'0 0.0
2017-Nov-05 05:26N 29°46' W 095°06'0 0.0
2017-Nov-05 05:00N 29°46' W 095°06'0 0.0
2017-Nov-05 04:30N 29°46' W 095°06'0 0.0
2017-Nov-05 03:59N 29°46' W 095°06'0 0.0
2017-Nov-05 03:19N 29°46' W 095°06'0 0.0
2017-Nov-05 02:59N 29°46' W 095°06'1 1.4
2017-Nov-05 02:30N 29°46' W 095°06'0 0.0
2017-Nov-04 22:10N 29°46' W 095°06'0 0.8
2017-Nov-04 21:59N 29°46' W 095°06'0 0.8
2017-Nov-04 21:25N 29°46' W 095°06'2 4.0
2017-Nov-04 20:57N 29°45' W 095°04'3 6.0
2017-Nov-04 20:29N 29°44' W 095°01'3 5.4
2017-Nov-04 20:00N 29°42' W 094°60'3 6.4
2017-Nov-04 19:30N 29°39' W 094°58'3 6.8
2017-Nov-04 19:00N 29°36' W 094°56'3 6.8
2017-Nov-04 18:30N 29°33' W 094°54'4 0.2
2017-Nov-03 23:47N 29°29' W 094°52'2 8.1
2017-Nov-03 23:30N 29°31' W 094°53'4 8.3
2017-Nov-03 23:00N 29°34' W 094°56'4 8.2
2017-Nov-03 22:30N 29°38' W 094°58'4 7.7
2017-Nov-03 22:00N 29°42' W 094°60'3 5.6
2017-Nov-03 21:30N 29°44' W 095°02'3 5.0
2017-Nov-03 20:49N 29°46' W 095°05'0 0.2
2017-Nov-03 20:29N 29°46' W 095°05'1 1.1
2017-Nov-03 19:58N 29°46' W 095°05'0 0.6
2017-Nov-03 19:30N 29°46' W 095°06'0 0.0
2017-Nov-03 18:52N 29°46' W 095°06'0 0.0
2017-Nov-03 18:28N 29°46' W 095°06'0 0.0
2017-Nov-03 16:51N 29°46' W 095°06'0 0.0
2017-Nov-03 16:27N 29°46' W 095°06'0 0.2
2017-Nov-03 16:00N 29°46' W 095°05'0 0.2
2017-Nov-03 15:26N 29°46' W 095°06'0 0.0
2017-Nov-03 14:58N 29°46' W 095°06'0 0.0
2017-Nov-03 14:17N 29°46' W 095°06'0 0.0
2017-Nov-03 13:58N 29°46' W 095°06'0 0.0
2017-Nov-03 13:30N 29°46' W 095°06'0 0.0
2017-Nov-03 13:00N 29°46' W 095°06'0 0.0
2017-Nov-03 12:29N 29°46' W 095°06'0 0.0
2017-Nov-03 11:57N 29°46' W 095°06'0 0.0
2017-Nov-03 11:20N 29°46' W 095°06'0 0.0
2017-Nov-03 10:59N 29°46' W 095°06'0 0.0
2017-Nov-03 10:16N 29°46' W 095°06'0 0.0
2017-Nov-03 09:58N 29°46' W 095°06'0 0.0
2017-Nov-03 09:30N 29°46' W 095°06'0 0.0
2017-Nov-03 08:37N 29°46' W 095°06'0 0.0
2017-Nov-03 08:28N 29°46' W 095°06'0 0.0
2017-Nov-03 07:59N 29°46' W 095°06'0 0.0
2017-Nov-03 07:29N 29°46' W 095°06'0 0.0
2017-Nov-03 07:00N 29°46' W 095°06'0 0.0
2017-Nov-03 06:29N 29°46' W 095°06'0 0.0
2017-Nov-03 05:51N 29°46' W 095°06'0 0.0
2017-Nov-03 05:30N 29°46' W 095°06'0 0.0
2017-Nov-03 04:56N 29°46' W 095°06'0 0.0
2017-Nov-03 04:29N 29°46' W 095°06'0 0.0
2017-Nov-03 03:59N 29°46' W 095°06'0 0.0
2017-Nov-03 03:30N 29°46' W 095°06'0 0.0
2017-Nov-03 03:00N 29°46' W 095°06'0 0.0
2017-Nov-03 02:29N 29°46' W 095°06'0 0.0
2017-Nov-03 01:40N 29°46' W 095°06'0 0.0
2017-Nov-03 01:22N 29°46' W 095°06'0 0.0
2017-Nov-03 00:42N 29°46' W 095°06'0 0.0
2017-Nov-03 00:29N 29°46' W 095°06'0 0.0
2017-Nov-02 23:59N 29°46' W 095°06'0 0.0
2017-Nov-02 23:26N 29°46' W 095°06'0 0.0
2017-Nov-02 22:58N 29°46' W 095°06'0 0.0
2017-Nov-02 22:27N 29°46' W 095°06'0 0.0
2017-Nov-02 22:00N 29°46' W 095°06'0 0.0
2017-Nov-02 20:52N 29°46' W 095°06'0 0.0
2017-Nov-02 20:25N 29°46' W 095°06'0 0.0
2017-Nov-02 20:00N 29°46' W 095°06'0 0.0
2017-Nov-02 19:27N 29°46' W 095°06'1 0.2
2017-Nov-02 16:51N 29°45' W 095°06'1 1.3
2017-Nov-02 16:27N 29°46' W 095°06'0 0.0
2017-Nov-02 16:00N 29°46' W 095°06'0 0.0
2017-Nov-02 15:29N 29°46' W 095°06'0 0.0
2017-Nov-02 14:59N 29°46' W 095°06'0 0.0
2017-Nov-02 14:16N 29°46' W 095°06'0 0.0
2017-Nov-02 13:50N 29°46' W 095°06'0 0.0
2017-Nov-02 11:39N 29°46' W 095°06'0 0.0
2017-Nov-02 11:28N 29°46' W 095°06'0 0.0
2017-Nov-02 11:00N 29°46' W 095°06'0 0.0
2017-Nov-02 10:26N 29°46' W 095°06'0 0.0
2017-Nov-02 09:59N 29°46' W 095°06'0 0.0
2017-Nov-02 09:22N 29°46' W 095°06'0 0.0
2017-Nov-02 08:59N 29°46' W 095°06'0 0.0
2017-Nov-02 08:26N 29°46' W 095°06'0 0.0
2017-Nov-02 07:41N 29°46' W 095°06'0 0.0
2017-Nov-02 07:16N 29°46' W 095°06'0 0.0
2017-Nov-02 06:58N 29°46' W 095°06'0 0.0
2017-Nov-02 06:28N 29°46' W 095°06'0 0.0
2017-Nov-02 06:00N 29°46' W 095°06'0 0.0
2017-Nov-02 05:27N 29°46' W 095°06'0 0.0
2017-Nov-02 04:57N 29°46' W 095°06'0 0.0
2017-Nov-02 04:29N 29°46' W 095°06'0 0.0
2017-Nov-02 04:00N 29°46' W 095°06'0 0.0
2017-Nov-02 03:30N 29°46' W 095°06'0 0.0
2017-Nov-02 02:59N 29°46' W 095°06'0 0.0
2017-Nov-02 02:24N 29°46' W 095°06'0 0.0
2017-Nov-02 01:50N 29°46' W 095°06'0 0.0
2017-Nov-02 01:28N 29°46' W 095°06'0 0.0
2017-Nov-02 01:00N 29°46' W 095°06'0 0.0
2017-Nov-02 00:29N 29°46' W 095°06'0 0.0
2017-Nov-02 00:00N 29°46' W 095°06'0 0.0
2017-Nov-01 23:29N 29°46' W 095°06'0 0.0
2017-Nov-01 22:59N 29°46' W 095°06'0 0.0
2017-Nov-01 22:29N 29°46' W 095°06'0 0.0
2017-Nov-01 22:00N 29°46' W 095°06'0 0.0
2017-Nov-01 21:30N 29°46' W 095°06'0 0.0
2017-Nov-01 21:00N 29°46' W 095°06'0 0.0
2017-Nov-01 20:30N 29°46' W 095°06'0 0.0
2017-Nov-01 19:58N 29°46' W 095°06'0 0.0
2017-Nov-01 19:27N 29°46' W 095°06'0 0.0
2017-Nov-01 19:00N 29°46' W 095°06'0 0.0
2017-Nov-01 18:29N 29°46' W 095°06'0 0.0
2017-Nov-01 01:55N 29°46' W 095°06'0 0.0
2017-Nov-01 01:16N 29°46' W 095°06'0 0.0
2017-Nov-01 01:00N 29°46' W 095°06'0 0.0
2017-Nov-01 00:29N 29°46' W 095°06'0 0.0
2017-Oct-31 23:59N 29°46' W 095°06'0 0.0
2017-Oct-31 23:30N 29°46' W 095°06'0 0.0
2017-Oct-31 23:00N 29°46' W 095°06'0 0.0
2017-Oct-31 22:30N 29°46' W 095°06'0 0.0
2017-Oct-31 22:00N 29°46' W 095°06'0 0.0
2017-Oct-31 21:30N 29°46' W 095°06'0 0.0
2017-Oct-31 20:54N 29°46' W 095°06'0 0.0
2017-Oct-31 20:28N 29°46' W 095°06'0 0.0
2017-Oct-31 19:59N 29°46' W 095°06'0 0.0
2017-Oct-31 19:29N 29°46' W 095°06'0 0.0
2017-Oct-31 18:58N 29°46' W 095°06'0 0.0
2017-Oct-31 18:29N 29°46' W 095°06'0 0.0
2017-Oct-31 18:00N 29°46' W 095°06'0 0.0
2017-Oct-31 17:29N 29°46' W 095°06'1 0.4
2017-Oct-31 15:56N 29°46' W 095°06'0 0.0
2017-Oct-31 15:29N 29°46' W 095°06'1 1.4
2017-Oct-31 15:00N 29°46' W 095°06'0 0.0
2017-Oct-31 14:27N 29°46' W 095°06'0 0.0
2017-Oct-31 13:57N 29°46' W 095°06'0 0.0
2017-Oct-31 13:29N 29°46' W 095°06'0 0.0
2017-Oct-31 12:59N 29°46' W 095°06'0 0.0
2017-Oct-31 12:30N 29°46' W 095°06'0 0.0
2017-Oct-31 12:00N 29°46' W 095°06'0 0.0
2017-Oct-31 11:27N 29°46' W 095°06'0 0.0
2017-Oct-31 11:00N 29°46' W 095°05'0 0.0
2017-Oct-31 10:26N 29°46' W 095°06'0 0.0
2017-Oct-31 10:00N 29°46' W 095°06'0 0.0
2017-Oct-31 09:24N 29°46' W 095°06'0 0.0
2017-Oct-31 08:59N 29°46' W 095°06'0 0.0
2017-Oct-31 08:30N 29°46' W 095°06'0 0.0
2017-Oct-31 08:00N 29°46' W 095°06'0 0.0
2017-Oct-31 07:30N 29°46' W 095°06'0 0.0
2017-Oct-31 07:00N 29°46' W 095°06'0 0.0
2017-Oct-31 06:28N 29°46' W 095°06'0 0.0
2017-Oct-31 06:00N 29°46' W 095°06'0 0.0
2017-Oct-31 05:30N 29°46' W 095°06'0 0.0
2017-Oct-31 04:59N 29°46' W 095°06'0 0.0
2017-Oct-31 04:30N 29°46' W 095°06'0 0.0
2017-Oct-31 03:58N 29°46' W 095°06'0 0.0
2017-Oct-31 03:24N 29°46' W 095°06'0 0.0
2017-Oct-31 03:00N 29°46' W 095°06'  

Dump ship's entire track history